Time;durP1;ratioP1;P1;durP2;ratioP2;P2;SDS_P1;SDS_P2;PMS_P1;PMS_P2;Temp;Humidity;BMP_temperature;BMP_pressure;BME280_temperature;BME280_humidity;BME280_pressure;Samples;Min_cycle;Max_cycle;Signal;HPM_P1;HPM_P2
2022/07/13 00:00:11;;;;;;;1.25;1.00;;;19.30;89.30;;;;;;5050316;28;20111;-75
2022/07/13 00:02:37;;;;;;;4.57;1.08;;;19.30;89.30;;;;;;5049931;28;20031;-76
2022/07/13 00:05:04;;;;;;;1.98;1.10;;;19.30;89.20;;;;;;5049496;28;20032;-76
2022/07/13 00:07:29;;;;;;;2.78;0.93;;;19.30;89.20;;;;;;5050218;28;20032;-76
2022/07/13 00:09:55;;;;;;;2.38;0.93;;;19.30;89.30;;;;;;5050381;28;20151;-76
2022/07/13 00:12:20;;;;;;;2.50;1.20;;;19.30;89.40;;;;;;5050095;28;20048;-76
2022/07/13 00:14:46;;;;;;;2.53;1.10;;;19.30;89.40;;;;;;5066489;28;20021;-77
2022/07/13 00:17:12;;;;;;;2.63;1.10;;;19.20;89.50;;;;;;5050094;28;20512;-76
2022/07/13 00:19:37;;;;;;;1.75;1.00;;;19.20;89.60;;;;;;5049853;28;20031;-76
2022/07/13 00:22:03;;;;;;;3.38;0.95;;;19.20;89.60;;;;;;5050917;28;20083;-76
2022/07/13 00:24:29;;;;;;;1.98;1.05;;;19.20;89.70;;;;;;5049284;28;20037;-76
2022/07/13 00:26:54;;;;;;;1.55;0.80;;;19.20;89.70;;;;;;5050282;28;20055;-76
2022/07/13 00:29:20;;;;;;;1.80;1.00;;;19.10;89.60;;;;;;5050825;28;20029;-76
2022/07/13 00:31:46;;;;;;;2.30;0.90;;;19.20;89.80;;;;;;5051517;28;20032;-76
2022/07/13 00:34:13;;;;;;;1.63;1.10;;;19.20;89.80;;;;;;5049143;28;20052;-76
2022/07/13 00:36:39;;;;;;;3.20;1.08;;;19.20;89.80;;;;;;5049993;28;20387;-76
2022/07/13 00:39:05;;;;;;;1.60;0.90;;;19.20;90.10;;;;;;5049447;28;20484;-76
2022/07/13 00:41:30;;;;;;;1.63;1.00;;;19.20;89.90;;;;;;5049930;28;20565;-75
2022/07/13 00:44:09;;;;;;;3.28;1.08;;;19.20;90.10;;;;;;5065939;28;20032;-76
2022/07/13 00:46:36;;;;;;;2.20;0.90;;;19.20;89.90;;;;;;5049589;28;20028;-77
2022/07/13 00:49:05;;;;;;;1.27;0.90;;;19.10;89.60;;;;;;5049754;28;20841;-76
2022/07/13 00:51:31;;;;;;;2.45;1.08;;;19.20;89.60;;;;;;5049492;28;20036;-76
2022/07/13 00:53:59;;;;;;;2.10;0.93;;;19.30;89.50;;;;;;5049610;28;20033;-75
2022/07/13 00:56:26;;;;;;;2.70;0.90;;;19.30;89.40;;;;;;5049792;28;20032;-76
2022/07/13 00:58:52;;;;;;;1.05;0.90;;;19.30;89.30;;;;;;5066014;28;20032;-76
2022/07/13 01:01:17;;;;;;;1.58;0.95;;;19.30;89.30;;;;;;5049117;28;20029;-76
2022/07/13 01:03:43;;;;;;;2.33;1.00;;;19.30;89.40;;;;;;5049411;28;20036;-76
2022/07/13 01:06:10;;;;;;;2.40;1.20;;;19.20;89.50;;;;;;5049429;28;20025;-76
2022/07/13 01:08:35;;;;;;;1.90;0.90;;;19.20;89.50;;;;;;5049898;28;20029;-76
2022/07/13 01:11:02;;;;;;;2.88;0.98;;;19.20;89.60;;;;;;5048956;28;20029;-76
2022/07/13 01:13:27;;;;;;;2.90;0.90;;;19.20;89.70;;;;;;5049313;28;20036;-76
2022/07/13 01:15:53;;;;;;;1.70;0.90;;;19.20;89.70;;;;;;5049487;28;20482;-76
2022/07/13 01:18:20;;;;;;;2.10;0.98;;;19.20;89.80;;;;;;5049501;28;20097;-76
2022/07/13 01:20:46;;;;;;;1.83;0.80;;;19.20;89.80;;;;;;5049219;28;20021;-76
2022/07/13 01:23:13;;;;;;;2.22;0.90;;;19.20;89.90;;;;;;5049128;28;20517;-76
2022/07/13 01:25:39;;;;;;;2.08;1.02;;;19.20;89.90;;;;;;5049030;28;20037;-76
2022/07/13 01:28:05;;;;;;;1.73;0.90;;;19.20;89.90;;;;;;5049374;28;20406;-76
2022/07/13 01:30:31;;;;;;;2.80;1.00;;;19.20;89.90;;;;;;5049519;28;20032;-75
2022/07/13 01:32:57;;;;;;;2.22;0.90;;;19.20;90.00;;;;;;5048984;28;20489;-76
2022/07/13 01:35:24;;;;;;;2.33;0.93;;;19.10;89.90;;;;;;5050183;28;20039;-76
2022/07/13 01:37:50;;;;;;;4.00;1.00;;;19.20;90.00;;;;;;5049336;28;20033;-76
2022/07/13 01:40:17;;;;;;;3.20;1.00;;;19.20;90.00;;;;;;5067246;28;20021;-76
2022/07/13 01:42:44;;;;;;;1.80;0.98;;;19.20;90.20;;;;;;5053042;28;20033;-76
2022/07/13 01:45:11;;;;;;;2.40;1.08;;;19.20;89.70;;;;;;5052232;28;20585;-75
2022/07/13 01:47:43;;;;;;;2.17;1.10;;;19.20;89.60;;;;;;5052904;28;20432;-76
2022/07/13 01:50:10;;;;;;;1.85;0.82;;;19.20;89.50;;;;;;5053350;28;20025;-76
2022/07/13 01:52:37;;;;;;;1.33;0.90;;;19.30;89.40;;;;;;5054193;28;20037;-76
2022/07/13 01:55:04;;;;;;;1.45;0.80;;;19.30;89.40;;;;;;5052405;28;20045;-76
2022/07/13 01:57:29;;;;;;;1.92;0.90;;;19.30;89.50;;;;;;5053726;28;20036;-76
2022/07/13 02:00:07;;;;;;;1.05;0.90;;;19.20;89.50;;;;;;5055627;28;20028;-76
2022/07/13 02:02:32;;;;;;;2.17;1.00;;;19.20;89.60;;;;;;5073056;28;20060;-76
2022/07/13 02:04:58;;;;;;;2.25;0.80;;;19.20;89.70;;;;;;5058918;28;20537;-76
2022/07/13 02:07:24;;;;;;;1.75;1.00;;;19.20;89.80;;;;;;5052008;28;20021;-75
2022/07/13 02:09:50;;;;;;;0.95;0.82;;;19.20;89.80;;;;;;5052671;28;20017;-76
2022/07/13 02:12:17;;;;;;;1.98;1.00;;;19.20;89.90;;;;;;5052548;28;20036;-76
2022/07/13 02:14:43;;;;;;;1.88;0.82;;;19.20;89.90;;;;;;5052010;28;20056;-75
2022/07/13 02:17:09;;;;;;;0.90;0.80;;;19.20;89.90;;;;;;5052368;28;20110;-77
2022/07/13 02:19:34;;;;;;;1.60;0.90;;;19.10;89.90;;;;;;5052476;28;20063;-76
2022/07/13 02:22:00;;;;;;;0.80;0.80;;;19.10;90.00;;;;;;5052979;28;20017;-75
2022/07/13 02:24:26;;;;;;;1.73;0.90;;;19.20;90.00;;;;;;5067754;28;20043;-76
2022/07/13 02:26:52;;;;;;;2.10;0.90;;;19.10;90.00;;;;;;5053217;28;20028;-76
2022/07/13 02:29:18;;;;;;;1.95;0.90;;;19.20;90.00;;;;;;5068451;28;20115;-76
2022/07/13 02:31:43;;;;;;;2.10;1.20;;;19.10;90.00;;;;;;5052120;28;20040;-75
2022/07/13 02:34:09;;;;;;;1.23;0.93;;;19.10;90.00;;;;;;5051609;28;20465;-76
2022/07/13 02:36:35;;;;;;;2.35;0.90;;;19.20;90.00;;;;;;5052071;28;20707;-76
2022/07/13 02:39:00;;;;;;;1.23;0.90;;;19.20;89.90;;;;;;5048119;28;20367;-75
2022/07/13 02:41:26;;;;;;;1.23;0.90;;;19.10;89.70;;;;;;5046103;28;20029;-76
2022/07/13 02:43:52;;;;;;;1.58;0.90;;;19.20;89.60;;;;;;5051302;28;20065;-76
2022/07/13 02:46:17;;;;;;;2.25;1.20;;;19.20;89.50;;;;;;5052363;28;20408;-76
2022/07/13 02:48:43;;;;;;;1.05;0.70;;;19.20;89.50;;;;;;5053171;28;20500;-76
2022/07/13 02:51:09;;;;;;;0.85;0.80;;;19.30;89.50;;;;;;5053173;28;20029;-75
2022/07/13 02:53:34;;;;;;;2.30;0.90;;;19.20;89.60;;;;;;5051140;28;20029;-76
2022/07/13 02:56:00;;;;;;;1.80;0.90;;;19.20;89.60;;;;;;5051737;28;20602;-75
2022/07/13 02:58:25;;;;;;;1.58;0.80;;;19.20;89.70;;;;;;5051604;28;20040;-76
2022/07/13 03:00:51;;;;;;;1.17;0.80;;;19.20;89.80;;;;;;5053080;28;20029;-76
2022/07/13 03:03:17;;;;;;;3.08;1.02;;;19.20;89.90;;;;;;5054464;28;20082;-75
2022/07/13 03:05:42;;;;;;;1.73;0.80;;;19.20;90.00;;;;;;5050552;28;20052;-76
2022/07/13 03:08:08;;;;;;;1.33;0.80;;;19.20;90.00;;;;;;5052948;28;20083;-76
2022/07/13 03:10:34;;;;;;;1.20;0.80;;;19.20;90.00;;;;;;5051303;28;20036;-76
2022/07/13 03:12:59;;;;;;;1.92;0.98;;;19.20;90.00;;;;;;5051437;28;20031;-76
2022/07/13 03:15:25;;;;;;;1.38;0.80;;;19.20;90.00;;;;;;5061647;28;20444;-76
2022/07/13 03:17:50;;;;;;;1.63;0.80;;;19.10;90.00;;;;;;5050804;28;20051;-76
2022/07/13 03:20:16;;;;;;;1.30;0.90;;;19.10;90.00;;;;;;5052776;28;20502;-76
2022/07/13 03:22:42;;;;;;;3.10;0.93;;;19.10;90.00;;;;;;5031407;28;20564;-76
2022/07/13 03:25:08;;;;;;;1.73;1.20;;;19.10;90.00;;;;;;5030972;28;20113;-76
2022/07/13 03:27:34;;;;;;;2.50;1.02;;;19.10;90.10;;;;;;5030885;28;20498;-76
2022/07/13 03:30:00;;;;;;;1.60;0.85;;;19.10;90.10;;;;;;5048031;28;20079;-76
2022/07/13 03:32:25;;;;;;;2.75;1.08;;;19.10;90.00;;;;;;5030935;28;20033;-76
2022/07/13 03:34:51;;;;;;;1.40;0.90;;;19.20;90.00;;;;;;5031017;28;20494;-76
2022/07/13 03:37:16;;;;;;;1.70;0.90;;;19.20;89.80;;;;;;5031313;28;20398;-76
2022/07/13 03:39:42;;;;;;;1.83;1.10;;;19.20;89.70;;;;;;5031189;28;20240;-76
2022/07/13 03:42:08;;;;;;;1.38;1.08;;;19.30;89.70;;;;;;5030899;28;20029;-76
2022/07/13 03:44:33;;;;;;;1.33;0.85;;;19.20;89.60;;;;;;5031929;28;20034;-76
2022/07/13 03:47:00;;;;;;;2.55;1.02;;;19.10;89.60;;;;;;5031031;28;20030;-76
2022/07/13 03:49:26;;;;;;;1.63;0.90;;;19.10;89.60;;;;;;5031187;28;20029;-76
2022/07/13 03:51:51;;;;;;;3.28;1.00;;;19.20;89.80;;;;;;5030048;28;20033;-75
2022/07/13 03:54:17;;;;;;;3.50;1.33;;;19.20;90.00;;;;;;5030401;28;20683;-75
2022/07/13 03:56:43;;;;;;;2.28;0.95;;;19.20;90.00;;;;;;5030718;28;20021;-75
2022/07/13 03:59:08;;;;;;;1.52;0.80;;;19.20;90.00;;;;;;5025233;28;20022;-75
2022/07/13 04:01:34;;;;;;;1.83;0.90;;;19.10;90.00;;;;;;5027470;28;20156;-75
2022/07/13 04:04:00;;;;;;;1.02;0.80;;;19.20;90.00;;;;;;5021150;28;20044;-74
2022/07/13 04:06:25;;;;;;;1.52;0.90;;;19.20;90.10;;;;;;5029252;28;20541;-74
2022/07/13 04:08:51;;;;;;;1.52;0.95;;;19.20;90.10;;;;;;5016952;28;20029;-74
2022/07/13 04:11:17;;;;;;;1.85;1.00;;;19.10;90.00;;;;;;5023172;28;20470;-75
2022/07/13 04:13:43;;;;;;;1.27;1.02;;;19.20;90.10;;;;;;5029347;28;20029;-75
2022/07/13 04:16:09;;;;;;;1.98;1.13;;;19.10;90.10;;;;;;5045878;28;20452;-75
2022/07/13 04:18:35;;;;;;;2.08;1.00;;;19.10;90.10;;;;;;5029783;28;20024;-75
2022/07/13 04:21:01;;;;;;;1.65;0.95;;;19.10;90.10;;;;;;5036451;28;20474;-75
2022/07/13 04:23:29;;;;;;;1.05;0.90;;;19.20;90.10;;;;;;5034086;28;20056;-75
2022/07/13 04:25:55;;;;;;;1.55;1.08;;;19.20;90.00;;;;;;5030128;28;20027;-75
2022/07/13 04:28:20;;;;;;;1.60;1.00;;;19.10;90.00;;;;;;5029298;28;20029;-75
2022/07/13 04:30:46;;;;;;;1.25;1.00;;;19.20;90.00;;;;;;5029796;28;20030;-76
2022/07/13 04:33:11;;;;;;;1.55;0.90;;;19.20;89.90;;;;;;5029489;28;20036;-75
2022/07/13 04:35:37;;;;;;;1.02;0.90;;;19.30;89.80;;;;;;5029592;28;20048;-75
2022/07/13 04:38:02;;;;;;;1.92;1.05;;;19.20;89.70;;;;;;5027603;28;20029;-76
2022/07/13 04:40:28;;;;;;;1.58;1.00;;;19.20;89.70;;;;;;5024255;28;20109;-75
2022/07/13 04:42:54;;;;;;;2.08;1.00;;;19.30;89.80;;;;;;5030317;28;20029;-75
2022/07/13 04:45:19;;;;;;;1.75;1.10;;;19.20;89.90;;;;;;5027756;28;20090;-74
2022/07/13 04:47:45;;;;;;;1.35;0.95;;;19.20;90.00;;;;;;5029596;28;20038;-77
2022/07/13 04:50:11;;;;;;;1.30;0.90;;;19.20;90.00;;;;;;5029724;28;20033;-75
2022/07/13 04:52:37;;;;;;;1.20;0.90;;;19.20;90.00;;;;;;5028440;28;20036;-74
2022/07/13 04:55:03;;;;;;;2.55;1.23;;;19.20;90.00;;;;;;5028895;28;20022;-72
2022/07/13 04:57:29;;;;;;;2.00;0.90;;;19.20;90.00;;;;;;5029363;28;20026;-76
2022/07/13 04:59:55;;;;;;;1.83;1.10;;;19.10;90.00;;;;;;5029868;28;20021;-75
2022/07/13 05:02:21;;;;;;;1.92;1.02;;;19.10;90.10;;;;;;5030303;28;20033;-79
2022/07/13 05:04:46;;;;;;;1.33;0.90;;;19.20;90.10;;;;;;5027780;28;20030;-76
2022/07/13 05:07:12;;;;;;;1.63;0.90;;;19.30;90.10;;;;;;5023198;28;20490;-76
2022/07/13 05:09:37;;;;;;;0.98;0.82;;;19.20;90.10;;;;;;5046876;28;20035;-76
2022/07/13 05:12:03;;;;;;;2.40;1.00;;;19.20;90.10;;;;;;5030812;28;20509;-76
2022/07/13 05:14:29;;;;;;;1.85;1.10;;;19.10;90.10;;;;;;5030231;28;20060;-76
2022/07/13 05:16:54;;;;;;;1.40;1.00;;;19.10;90.00;;;;;;5035370;28;20504;-76
2022/07/13 05:19:20;;;;;;;1.73;1.00;;;19.20;90.00;;;;;;5033546;28;20026;-77
2022/07/13 05:21:45;;;;;;;2.67;1.33;;;19.20;90.00;;;;;;5035256;28;20025;-76
2022/07/13 05:24:11;;;;;;;1.75;1.02;;;19.20;90.00;;;;;;5034013;28;20036;-76
2022/07/13 05:26:36;;;;;;;2.10;1.00;;;19.20;89.80;;;;;;5033592;28;20030;-75
2022/07/13 05:29:04;;;;;;;1.42;1.00;;;19.30;89.70;;;;;;5034895;28;20029;-73
2022/07/13 05:31:30;;;;;;;1.25;0.95;;;19.30;89.60;;;;;;5032768;28;20064;-75
2022/07/13 05:33:56;;;;;;;1.73;1.00;;;19.30;89.70;;;;;;5034508;28;20040;-77
2022/07/13 05:36:21;;;;;;;1.52;1.08;;;19.30;89.70;;;;;;5034116;28;20029;-77
2022/07/13 05:38:47;;;;;;;1.45;1.00;;;19.30;89.70;;;;;;5033663;28;20022;-75
2022/07/13 05:41:12;;;;;;;2.00;1.20;;;19.20;89.70;;;;;;5029085;28;20394;-76
2022/07/13 05:43:38;;;;;;;2.65;1.23;;;19.20;89.80;;;;;;5029900;28;20040;-76
2022/07/13 05:46:04;;;;;;;2.53;1.10;;;19.20;89.90;;;;;;5042258;28;20022;-76
2022/07/13 05:48:29;;;;;;;1.60;0.93;;;19.20;89.90;;;;;;5041213;28;20032;-76
2022/07/13 05:50:55;;;;;;;2.35;1.30;;;19.20;89.90;;;;;;5020761;28;20108;-76
2022/07/13 05:53:20;;;;;;;1.85;1.10;;;19.20;89.90;;;;;;5029330;28;20041;-76
2022/07/13 05:55:46;;;;;;;2.80;1.10;;;19.20;89.90;;;;;;5022486;28;20060;-76
2022/07/13 05:58:13;;;;;;;2.05;1.10;;;19.20;89.90;;;;;;5032949;28;20475;-77
2022/07/13 06:00:40;;;;;;;1.83;1.02;;;19.20;90.00;;;;;;5053600;28;20028;-81
2022/07/13 06:03:05;;;;;;;3.22;1.20;;;19.20;90.00;;;;;;5033835;28;20034;-76
2022/07/13 06:05:31;;;;;;;3.65;1.20;;;19.20;90.00;;;;;;5032477;28;20618;-76
2022/07/13 06:07:57;;;;;;;3.75;1.60;;;19.20;90.00;;;;;;5020878;28;20033;-76
2022/07/13 06:10:22;;;;;;;2.83;1.20;;;19.20;90.00;;;;;;5034741;28;20047;-76
2022/07/13 06:12:48;;;;;;;3.20;1.35;;;19.20;90.00;;;;;;5022530;28;20064;-77
2022/07/13 06:15:13;;;;;;;4.03;1.40;;;19.20;90.00;;;;;;5028099;28;20026;-76
2022/07/13 06:17:39;;;;;;;2.10;1.38;;;19.30;89.90;;;;;;5034306;28;20119;-77
2022/07/13 06:20:05;;;;;;;4.68;1.45;;;19.30;89.60;;;;;;5033742;28;20608;-77
2022/07/13 06:22:31;;;;;;;2.72;1.25;;;19.30;89.40;;;;;;5033449;28;20064;-77
2022/07/13 06:24:56;;;;;;;3.88;1.40;;;19.30;89.40;;;;;;5033856;28;20045;-76
2022/07/13 06:27:22;;;;;;;3.63;1.40;;;19.30;89.10;;;;;;5032855;28;20025;-76
2022/07/13 06:29:48;;;;;;;2.55;1.50;;;19.30;89.10;;;;;;5033743;28;20079;-76
2022/07/13 06:32:13;;;;;;;3.72;1.60;;;19.30;89.00;;;;;;5031188;28;20100;-76
2022/07/13 06:34:38;;;;;;;5.03;1.63;;;19.30;89.00;;;;;;5032233;28;20021;-76
2022/07/13 06:37:04;;;;;;;4.40;1.60;;;19.30;89.10;;;;;;5034372;28;20421;-76
2022/07/13 06:39:30;;;;;;;3.60;1.73;;;19.30;89.10;;;;;;5034162;28;20101;-76
2022/07/13 06:41:55;;;;;;;2.38;1.50;;;19.30;89.20;;;;;;5032221;28;20022;-76
2022/07/13 06:44:21;;;;;;;3.35;1.50;;;19.30;89.20;;;;;;5026889;28;20139;-76
2022/07/13 06:46:46;;;;;;;3.75;1.77;;;19.30;89.20;;;;;;5034270;28;20029;-76
2022/07/13 06:49:12;;;;;;;3.33;1.70;;;19.30;89.20;;;;;;5050367;28;20055;-76
2022/07/13 06:51:38;;;;;;;3.97;1.80;;;19.30;89.20;;;;;;5031688;28;20112;-76
2022/07/13 06:54:03;;;;;;;3.78;1.50;;;19.30;89.20;;;;;;5032343;28;20036;-76
2022/07/13 06:56:29;;;;;;;3.58;1.58;;;19.30;89.10;;;;;;5049026;28;20490;-76
2022/07/13 06:58:54;;;;;;;3.63;1.83;;;19.30;89.10;;;;;;5033738;28;20018;-75
2022/07/13 07:01:21;;;;;;;3.25;1.83;;;19.30;89.00;;;;;;5032496;28;20030;-76
2022/07/13 07:03:47;;;;;;;3.10;1.77;;;19.30;88.90;;;;;;5033548;28;20041;-76
2022/07/13 07:06:13;;;;;;;3.17;1.70;;;19.30;89.10;;;;;;5040281;28;20025;-75
2022/07/13 07:08:38;;;;;;;3.20;1.83;;;19.40;89.00;;;;;;5039579;28;20046;-76
2022/07/13 07:11:04;;;;;;;4.90;1.73;;;19.40;88.90;;;;;;5026791;28;20481;-76
2022/07/13 07:13:29;;;;;;;3.65;1.83;;;19.40;88.70;;;;;;5033485;28;20030;-76
2022/07/13 07:15:55;;;;;;;3.75;1.70;;;19.50;88.60;;;;;;5032899;28;20025;-76
2022/07/13 07:18:21;;;;;;;5.15;1.73;;;19.50;88.40;;;;;;5048903;28;20123;-75
2022/07/13 07:20:48;;;;;;;3.22;1.60;;;19.40;88.30;;;;;;5032611;28;20559;-76
2022/07/13 07:23:14;;;;;;;5.57;1.60;;;19.50;88.40;;;;;;5033689;28;20402;-76
2022/07/13 07:25:40;;;;;;;2.63;1.58;;;19.50;88.90;;;;;;5031972;28;20124;-76
2022/07/13 07:28:06;;;;;;;5.80;1.70;;;19.50;88.40;;;;;;5032437;28;20068;-75
2022/07/13 07:30:32;;;;;;;2.78;1.63;;;19.50;88.50;;;;;;5032249;28;20445;-76
2022/07/13 07:32:57;;;;;;;4.10;1.80;;;19.40;88.50;;;;;;5032979;28;20036;-76
2022/07/13 07:35:23;;;;;;;3.50;1.55;;;19.40;88.60;;;;;;5031750;28;20032;-76
2022/07/13 07:37:48;;;;;;;3.88;1.77;;;19.40;88.60;;;;;;5031461;28;20087;-79
2022/07/13 07:40:14;;;;;;;4.72;2.00;;;19.40;88.60;;;;;;5022843;28;20018;-76
2022/07/13 07:42:39;;;;;;;4.45;1.77;;;19.40;88.40;;;;;;5048737;28;20516;-77
2022/07/13 07:45:06;;;;;;;5.88;1.83;;;19.40;88.50;;;;;;5033497;28;20029;-75
2022/07/13 07:47:32;;;;;;;4.82;1.90;;;19.40;88.30;;;;;;5032184;28;20026;-79
2022/07/13 07:49:57;;;;;;;7.25;2.00;;;19.40;87.90;;;;;;5047622;28;20029;-75
2022/07/13 07:52:23;;;;;;;5.72;2.20;;;19.40;88.00;;;;;;5031184;28;20063;-76
2022/07/13 07:54:48;;;;;;;4.05;2.22;;;19.40;87.90;;;;;;5032240;28;20033;-75
2022/07/13 07:57:14;;;;;;;6.13;1.80;;;19.40;87.60;;;;;;5031780;28;20018;-75
2022/07/13 07:59:41;;;;;;;3.58;2.00;;;19.40;88.00;;;;;;5032921;28;20045;-75
2022/07/13 08:02:07;;;;;;;4.55;1.85;;;19.50;87.60;;;;;;5032008;28;20032;-76
2022/07/13 08:04:33;;;;;;;4.80;2.20;;;19.50;88.00;;;;;;5032399;28;20034;-77
2022/07/13 08:07:00;;;;;;;4.30;1.90;;;19.40;87.40;;;;;;5032999;28;20024;-77
2022/07/13 08:09:25;;;;;;;4.88;2.30;;;19.50;87.60;;;;;;5032364;28;20025;-80
2022/07/13 08:11:51;;;;;;;2.40;1.70;;;19.60;86.80;;;;;;5035185;28;20429;-81
2022/07/13 08:14:16;;;;;;;4.63;1.95;;;19.60;86.80;;;;;;5035904;28;20030;-76
2022/07/13 08:16:42;;;;;;;3.80;1.88;;;19.60;87.00;;;;;;5032535;28;20108;-76
2022/07/13 08:19:07;;;;;;;4.32;2.00;;;19.60;87.30;;;;;;5032198;28;20445;-76
2022/07/13 08:21:34;;;;;;;3.83;1.65;;;19.60;87.30;;;;;;5032374;28;20034;-76
2022/07/13 08:23:59;;;;;;;3.78;1.95;;;19.60;87.50;;;;;;5030756;28;20506;-76
2022/07/13 08:26:27;;;;;;;4.05;2.00;;;19.60;87.50;;;;;;5032093;28;20053;-76
2022/07/13 08:28:54;;;;;;;4.05;1.90;;;19.60;87.50;;;;;;5032153;28;20033;-76
2022/07/13 08:31:21;;;;;;;5.47;2.05;;;19.50;87.70;;;;;;5031106;28;20029;-76
2022/07/13 08:39:17;;;;;;;4.32;1.98;;;19.60;87.50;;;;;;5032018;28;20036;-76
2022/07/13 08:41:43;;;;;;;2.90;1.90;;;19.60;87.80;;;;;;5044822;28;20021;-76
2022/07/13 08:44:08;;;;;;;3.45;2.03;;;19.60;87.80;;;;;;5037113;28;20025;-76
2022/07/13 08:46:34;;;;;;;2.83;1.85;;;19.60;87.90;;;;;;5025237;28;20040;-75
2022/07/13 08:49:00;;;;;;;5.20;1.90;;;19.60;88.00;;;;;;5029458;28;20028;-75
2022/07/13 08:51:26;;;;;;;4.40;2.10;;;19.50;87.90;;;;;;5021068;28;20151;-76
2022/07/13 08:53:55;;;;;;;4.03;2.08;;;19.50;88.10;;;;;;5032690;28;20080;-76
2022/07/13 08:56:21;;;;;;;3.80;2.00;;;19.60;88.20;;;;;;5031252;28;20017;-76
2022/07/13 08:58:47;;;;;;;3.50;1.90;;;19.60;88.10;;;;;;5031867;28;20191;-76
2022/07/13 09:01:14;;;;;;;6.32;1.90;;;19.70;88.00;;;;;;5030210;28;20512;-76
2022/07/13 09:03:40;;;;;;;3.60;1.80;;;19.70;87.80;;;;;;5031148;28;20104;-75
2022/07/13 09:06:06;;;;;;;3.58;1.90;;;19.70;87.60;;;;;;5030505;28;20116;-76
2022/07/13 09:08:42;;;;;;;3.13;1.90;;;19.70;87.40;;;;;;5030337;28;20481;-76
2022/07/13 09:11:07;;;;;;;3.83;2.05;;;19.80;87.30;;;;;;5030676;28;20406;-76
2022/07/13 09:13:46;;;;;;;3.20;1.80;;;19.80;87.40;;;;;;5030325;28;20026;-76
2022/07/13 09:16:12;;;;;;;3.35;2.00;;;19.80;87.40;;;;;;5037775;28;20033;-76
2022/07/13 09:18:37;;;;;;;3.28;1.92;;;19.80;87.30;;;;;;5041317;28;20025;-76
2022/07/13 09:21:03;;;;;;;3.25;1.90;;;19.90;87.30;;;;;;5032032;28;20461;-76
2022/07/13 09:23:31;;;;;;;3.13;1.80;;;19.90;87.30;;;;;;5029903;28;20025;-75
2022/07/13 09:25:57;;;;;;;2.92;1.90;;;19.90;87.30;;;;;;5034549;28;20037;-74
2022/07/13 09:28:22;;;;;;;4.78;2.08;;;19.90;87.30;;;;;;5045060;28;20033;-75
2022/07/13 09:30:48;;;;;;;4.43;2.03;;;20.00;87.20;;;;;;5031198;28;20049;-75
2022/07/13 09:33:13;;;;;;;3.30;2.00;;;20.00;87.20;;;;;;5041566;28;20144;-76
2022/07/13 09:35:39;;;;;;;3.58;2.00;;;20.00;87.20;;;;;;5051610;28;20054;-74
2022/07/13 09:38:04;;;;;;;2.90;1.80;;;20.00;87.20;;;;;;5034645;28;20025;-75
2022/07/13 09:40:30;;;;;;;3.15;1.83;;;20.00;87.20;;;;;;5031027;28;20028;-75
2022/07/13 09:48:25;;;;;;;3.90;2.22;;;20.00;87.30;;;;;;5031481;28;20585;-75
2022/07/13 09:50:54;;;;;;;3.10;2.03;;;20.10;87.00;;;;;;5043467;28;20037;-74
2022/07/13 09:53:31;;;;;;;4.18;2.28;;;20.10;86.80;;;;;;5028648;28;20021;-76
2022/07/13 09:56:00;;;;;;;4.28;2.05;;;20.10;86.70;;;;;;5046204;28;20076;-75
2022/07/13 09:58:34;;;;;;;4.90;2.20;;;20.10;86.60;;;;;;5021605;28;20021;-75
2022/07/13 10:01:04;;;;;;;4.70;2.22;;;20.20;86.60;;;;;;5035449;28;20014;-80
2022/07/13 10:03:30;;;;;;;4.35;2.05;;;20.20;87.00;;;;;;5050513;28;20028;-75
2022/07/13 10:05:58;;;;;;;4.68;2.20;;;20.10;86.50;;;;;;5053307;28;20103;-76
2022/07/13 10:08:23;;;;;;;5.28;2.28;;;20.20;86.60;;;;;;5053461;28;20025;-75
2022/07/13 10:10:49;;;;;;;8.18;2.30;;;20.10;86.50;;;;;;5054108;28;20040;-76
2022/07/13 10:13:16;;;;;;;4.95;1.90;;;20.10;86.50;;;;;;5054174;28;20025;-75
2022/07/13 10:15:43;;;;;;;5.05;2.33;;;20.20;86.60;;;;;;5052889;28;20025;-76
2022/07/13 10:18:11;;;;;;;6.22;2.38;;;20.10;87.00;;;;;;5054610;28;20514;-76
2022/07/13 10:20:42;;;;;;;7.20;1.98;;;20.20;86.60;;;;;;5053035;28;20029;-75
2022/07/13 10:23:08;;;;;;;4.85;2.42;;;20.20;86.60;;;;;;5053073;28;20033;-76
2022/07/13 10:25:49;;;;;;;4.38;2.20;;;20.20;87.10;;;;;;5052350;28;20120;-76
2022/07/13 10:28:18;;;;;;;6.63;2.33;;;20.20;86.70;;;;;;5052769;28;20028;-76
2022/07/13 10:30:44;;;;;;;5.40;2.08;;;20.20;86.80;;;;;;5052817;28;20029;-76
2022/07/13 10:33:17;;;;;;;8.05;2.40;;;20.20;86.80;;;;;;5052657;28;20120;-76
2022/07/13 10:35:54;;;;;;;4.03;2.20;;;20.20;86.80;;;;;;5052413;28;20059;-75
2022/07/13 10:38:27;;;;;;;3.80;2.15;;;20.20;86.90;;;;;;5052661;28;20112;-75
2022/07/13 10:41:16;;;;;;;7.43;2.33;;;20.20;86.90;;;;;;5052624;28;20085;-75
2022/07/13 10:43:42;;;;;;;6.07;2.40;;;20.20;86.80;;;;;;5052159;28;20021;-76
2022/07/13 10:46:09;;;;;;;4.35;2.28;;;20.20;86.70;;;;;;5052389;28;20029;-76
2022/07/13 10:48:34;;;;;;;5.50;2.40;;;20.20;86.60;;;;;;5052331;28;20025;-76
2022/07/13 10:51:02;;;;;;;6.75;2.20;;;20.30;86.60;;;;;;5053848;28;20036;-76
2022/07/13 10:53:43;;;;;;;4.00;2.00;;;20.30;86.50;;;;;;5051849;28;20032;-75
2022/07/13 10:56:19;;;;;;;5.65;2.67;;;20.30;86.40;;;;;;5052240;28;20462;-76
2022/07/13 10:58:49;;;;;;;5.07;2.10;;;20.30;86.30;;;;;;5053330;28;20021;-76
2022/07/13 11:01:40;;;;;;;4.40;2.10;;;20.30;86.20;;;;;;5053381;28;20017;-75
2022/07/13 11:04:07;;;;;;;4.78;2.20;;;20.30;86.30;;;;;;5051635;28;20037;-76
2022/07/13 11:06:33;;;;;;;8.50;2.40;;;20.30;86.20;;;;;;5053319;28;20111;-76
2022/07/13 11:09:10;;;;;;;4.15;2.03;;;20.30;86.20;;;;;;5052020;28;20024;-76
2022/07/13 11:11:44;;;;;;;4.32;2.30;;;20.30;86.30;;;;;;5053242;28;20021;-76
2022/07/13 11:14:38;;;;;;;3.65;2.15;;;20.30;86.30;;;;;;5052696;28;20063;-76
2022/07/13 11:17:12;;;;;;;3.80;1.98;;;20.30;86.50;;;;;;5051975;28;20021;-75
2022/07/13 11:19:57;;;;;;;5.85;2.08;;;20.30;86.50;;;;;;5051774;28;20028;-75
2022/07/13 11:22:25;;;;;;;3.45;2.00;;;20.30;86.50;;;;;;5051777;28;20386;-75
2022/07/13 11:25:19;;;;;;;4.90;2.00;;;20.30;86.60;;;;;;5051489;28;20021;-75
2022/07/13 11:27:56;;;;;;;3.42;1.85;;;20.30;86.70;;;;;;5052989;28;20024;-75
2022/07/13 11:30:29;;;;;;;4.65;2.20;;;20.20;86.60;;;;;;5053029;28;20126;-76
2022/07/13 11:32:54;;;;;;;4.88;2.13;;;20.20;86.70;;;;;;5052745;28;20052;-75
2022/07/13 11:35:20;;;;;;;4.85;2.20;;;20.30;86.80;;;;;;5052239;28;20072;-75
2022/07/13 11:37:46;;;;;;;3.58;1.90;;;20.30;86.70;;;;;;5051452;28;20021;-75
2022/07/13 11:40:31;;;;;;;4.50;2.42;;;20.30;86.80;;;;;;5051301;28;20031;-76
2022/07/13 11:43:01;;;;;;;4.63;2.20;;;20.40;86.60;;;;;;5052664;28;20096;-76
2022/07/13 11:45:30;;;;;;;5.53;2.20;;;20.30;86.40;;;;;;5052029;28;20498;-76
2022/07/13 11:47:59;;;;;;;4.03;2.20;;;20.30;86.30;;;;;;5052541;28;20013;-76
2022/07/13 11:50:41;;;;;;;3.60;2.00;;;20.30;86.30;;;;;;5052382;28;20053;-76
2022/07/13 11:53:07;;;;;;;3.40;1.90;;;20.40;86.20;;;;;;5052402;28;20029;-76
2022/07/13 11:55:35;;;;;;;3.38;1.80;;;20.30;86.20;;;;;;5050828;28;20031;-76
2022/07/13 11:58:00;;;;;;;4.28;2.10;;;20.30;86.30;;;;;;5051302;28;20021;-76
2022/07/13 12:00:26;;;;;;;3.95;2.00;;;20.30;86.40;;;;;;5050939;28;20028;-76
2022/07/13 12:02:52;;;;;;;5.00;2.10;;;20.30;86.50;;;;;;5052115;28;20025;-76
2022/07/13 12:05:26;;;;;;;4.13;1.92;;;20.20;86.60;;;;;;5050530;28;20036;-76
2022/07/13 12:08:04;;;;;;;3.83;2.13;;;20.20;86.80;;;;;;5052458;28;20021;-76
2022/07/13 12:10:31;;;;;;;2.95;1.80;;;20.20;86.90;;;;;;5050755;28;20029;-76
2022/07/13 12:12:56;;;;;;;6.68;2.35;;;20.20;86.90;;;;;;5051930;28;20036;-76
2022/07/13 12:15:23;;;;;;;4.40;1.92;;;20.20;87.10;;;;;;5051589;28;20025;-75
2022/07/13 12:17:48;;;;;;;3.60;2.00;;;20.20;87.20;;;;;;5051972;28;20028;-76
2022/07/13 12:20:22;;;;;;;4.40;2.15;;;20.10;87.10;;;;;;5050594;28;20024;-76
2022/07/13 12:22:50;;;;;;;3.97;2.00;;;20.10;87.20;;;;;;5051838;28;20024;-76
2022/07/13 12:25:34;;;;;;;3.35;1.92;;;20.10;87.20;;;;;;5049698;28;20060;-76
2022/07/13 12:28:01;;;;;;;3.70;2.08;;;20.10;87.50;;;;;;5050866;28;20082;-76
2022/07/13 12:30:28;;;;;;;3.63;2.03;;;20.10;87.40;;;;;;5050360;28;20021;-76
2022/07/13 12:33:09;;;;;;;3.33;2.00;;;20.10;87.30;;;;;;5050369;28;20021;-76
2022/07/13 12:35:37;;;;;;;2.67;1.65;;;20.20;87.30;;;;;;5051396;28;20021;-76
2022/07/13 12:38:14;;;;;;;3.83;2.00;;;20.20;87.20;;;;;;5050720;28;20120;-76
2022/07/13 12:40:52;;;;;;;3.83;1.88;;;20.20;87.10;;;;;;5050280;28;20052;-76
2022/07/13 12:43:23;;;;;;;3.53;1.85;;;20.20;87.00;;;;;;5050284;28;20025;-75
2022/07/13 12:46:06;;;;;;;3.38;1.92;;;20.20;87.10;;;;;;5050314;28;20025;-76
2022/07/13 12:48:34;;;;;;;4.03;2.00;;;20.10;87.10;;;;;;5050140;28;20631;-76
2022/07/13 12:51:02;;;;;;;4.72;2.30;;;20.10;87.30;;;;;;5051521;28;20457;-76
2022/07/13 12:53:49;;;;;;;3.85;2.10;;;20.10;87.40;;;;;;5051131;28;20025;-76
2022/07/13 12:56:16;;;;;;;3.42;1.80;;;20.10;87.60;;;;;;5051345;28;20105;-76
2022/07/13 12:58:47;;;;;;;3.00;1.90;;;20.00;87.60;;;;;;5050170;28;20021;-76